createdAt,value
2022-08-08T00:00:52.851Z,20.20
2022-08-08T00:03:01.147Z,20.00
2022-08-08T00:06:02.903Z,20.10
2022-08-08T00:08:51.323Z,20.20
2022-08-08T00:11:46.475Z,20.10
2022-08-08T00:14:59.535Z,20.00
2022-08-08T00:18:02.645Z,20.00
2022-08-08T00:20:51.427Z,20.00
2022-08-08T00:23:40.647Z,20.00
2022-08-08T00:26:12.904Z,20.00
2022-08-08T00:28:48.803Z,20.00
2022-08-08T00:32:20.054Z,20.00
2022-08-08T00:34:46.139Z,19.90
2022-08-08T00:38:31.345Z,19.90
2022-08-08T00:41:55.248Z,19.90
2022-08-08T00:44:38.670Z,19.90
2022-08-08T00:48:01.524Z,19.90
2022-08-08T00:50:29.187Z,19.90
2022-08-08T00:53:16.821Z,19.90
2022-08-08T00:56:19.214Z,19.90
2022-08-08T00:59:44.032Z,19.80
2022-08-08T01:03:58.547Z,19.90
2022-08-08T01:05:59.319Z,19.90
2022-08-08T01:08:52.088Z,19.90
2022-08-08T01:11:37.736Z,19.90
2022-08-08T01:14:16.389Z,19.90
2022-08-08T01:17:04.881Z,19.90
2022-08-08T01:20:02.710Z,19.80
2022-08-08T01:23:04.106Z,19.80
2022-08-08T01:26:02.155Z,19.90
2022-08-08T01:28:59.919Z,19.80
2022-08-08T01:32:16.183Z,19.90
2022-08-08T01:35:11.045Z,19.80
2022-08-08T01:38:00.370Z,19.90
2022-08-08T01:40:43.670Z,19.80
2022-08-08T01:43:21.361Z,19.80
2022-08-08T01:46:02.925Z,19.80
2022-08-08T01:49:03.263Z,19.80
2022-08-08T01:52:30.702Z,19.70
2022-08-08T01:55:26.858Z,19.70
2022-08-08T01:58:19.022Z,19.70
2022-08-08T02:01:58.538Z,19.60
2022-08-08T02:04:53.960Z,19.70
2022-08-08T02:07:41.371Z,19.60
2022-08-08T02:10:45.094Z,19.70
2022-08-08T02:13:52.772Z,19.70
2022-08-08T02:16:10.086Z,19.70
2022-08-08T02:19:58.002Z,19.60
2022-08-08T02:22:32.026Z,19.60
2022-08-08T02:25:21.851Z,19.60
2022-08-08T02:28:11.022Z,19.50
2022-08-08T02:30:58.106Z,19.50
2022-08-08T02:33:41.571Z,19.60
2022-08-08T02:36:37.226Z,19.50
2022-08-08T02:39:40.766Z,19.60
2022-08-08T02:42:38.457Z,19.50
2022-08-08T02:45:51.521Z,19.60
2022-08-08T02:48:29.546Z,19.40
2022-08-08T02:51:29.869Z,19.50
2022-08-08T02:54:27.847Z,19.50
2022-08-08T02:57:25.696Z,19.50
2022-08-08T03:00:43.090Z,19.60
2022-08-08T03:03:46.317Z,19.50
2022-08-08T03:06:38.084Z,19.50
2022-08-08T03:09:29.000Z,19.40
2022-08-08T03:12:35.960Z,19.30
2022-08-08T03:15:57.619Z,19.40
2022-08-08T03:18:31.470Z,19.40
2022-08-08T03:20:58.662Z,19.50
2022-08-08T03:23:56.547Z,19.40
2022-08-08T03:26:25.262Z,19.60
2022-08-08T03:28:59.969Z,19.50
2022-08-08T03:32:05.906Z,19.60
2022-08-08T03:34:34.555Z,19.60
2022-08-08T03:37:01.618Z,19.60
2022-08-08T03:39:51.654Z,19.60
2022-08-08T03:42:30.522Z,19.60
2022-08-08T03:44:58.123Z,19.60
2022-08-08T03:47:39.408Z,19.60
2022-08-08T03:50:19.943Z,19.70
2022-08-08T03:52:47.424Z,19.60
2022-08-08T03:55:55.133Z,19.70
2022-08-08T03:58:32.864Z,19.70
2022-08-08T04:01:02.276Z,19.60
2022-08-08T04:03:58.426Z,19.60
2022-08-08T04:06:29.834Z,19.60
2022-08-08T04:09:11.083Z,19.50
2022-08-08T04:11:57.910Z,19.50
2022-08-08T04:14:34.858Z,19.60
2022-08-08T04:17:04.540Z,19.60
2022-08-08T04:19:36.579Z,19.60
2022-08-08T04:22:04.352Z,19.60
2022-08-08T04:24:31.868Z,19.60
2022-08-08T04:26:59.904Z,19.50
2022-08-08T04:29:33.134Z,19.60
2022-08-08T04:32:04.967Z,19.60
2022-08-08T04:34:49.522Z,19.60
2022-08-08T04:37:20.630Z,19.60
2022-08-08T04:40:06.393Z,19.60
2022-08-08T04:42:34.913Z,19.60
2022-08-08T04:45:05.093Z,19.60
2022-08-08T04:47:32.476Z,19.70
2022-08-08T04:50:05.054Z,19.70
2022-08-08T04:52:33.771Z,19.80
2022-08-08T04:55:02.562Z,19.80
2022-08-08T04:57:31.709Z,19.80
2022-08-08T05:00:02.295Z,19.80
2022-08-08T05:02:31.327Z,19.90
2022-08-08T05:05:00.007Z,19.80
2022-08-08T05:07:37.793Z,19.80
2022-08-08T05:10:08.892Z,19.80
2022-08-08T05:12:43.094Z,19.90
2022-08-08T05:15:31.421Z,19.70
2022-08-08T05:18:13.978Z,19.90
2022-08-08T05:20:50.015Z,19.90
2022-08-08T05:23:17.540Z,19.90
2022-08-08T05:25:44.405Z,19.90
2022-08-08T05:28:14.804Z,19.80
2022-08-08T05:30:47.258Z,19.90
2022-08-08T05:33:16.829Z,20.00
2022-08-08T05:35:46.159Z,20.00
2022-08-08T05:38:30.380Z,19.90
2022-08-08T05:41:03.514Z,19.90
2022-08-08T05:44:02.129Z,19.90
2022-08-08T05:46:24.448Z,19.90
2022-08-08T05:48:54.260Z,19.80
2022-08-08T05:51:22.010Z,19.90
2022-08-08T05:54:24.402Z,20.10
2022-08-08T05:56:42.439Z,19.90
2022-08-08T05:59:53.500Z,19.90
2022-08-08T06:02:38.629Z,19.90
2022-08-08T06:05:34.225Z,19.90
2022-08-08T06:08:02.910Z,19.90
2022-08-08T06:10:39.351Z,19.90
2022-08-08T06:13:12.432Z,19.90
2022-08-08T06:15:51.346Z,20.00
2022-08-08T06:18:25.632Z,20.10
2022-08-08T06:20:58.616Z,20.10
2022-08-08T06:23:52.723Z,20.10
2022-08-08T06:26:38.688Z,20.20
2022-08-08T06:29:48.416Z,20.20
2022-08-08T06:32:10.860Z,20.20
2022-08-08T06:34:52.484Z,20.20
2022-08-08T06:37:27.944Z,20.20
2022-08-08T06:39:57.609Z,20.20
2022-08-08T06:42:31.268Z,20.10
2022-08-08T06:44:58.678Z,20.20
2022-08-08T06:47:31.631Z,20.10
2022-08-08T06:50:04.209Z,20.30
2022-08-08T06:52:32.448Z,20.20
2022-08-08T06:55:01.521Z,20.20
2022-08-08T06:57:29.394Z,20.20
2022-08-08T07:00:12.843Z,20.20
2022-08-08T07:02:46.300Z,20.10
2022-08-08T07:05:20.648Z,20.00
2022-08-08T07:08:18.253Z,20.20
2022-08-08T07:10:50.919Z,20.30
2022-08-08T07:13:20.089Z,20.30
2022-08-08T07:16:11.843Z,20.40
2022-08-08T07:19:07.210Z,20.40
2022-08-08T07:22:05.125Z,20.40
2022-08-08T07:24:46.551Z,20.40
2022-08-08T07:27:16.791Z,20.60
2022-08-08T07:30:02.293Z,20.60
2022-08-08T07:32:32.953Z,20.70
2022-08-08T07:35:06.379Z,20.80
2022-08-08T07:37:56.172Z,20.90
2022-08-08T07:40:29.567Z,21.00
2022-08-08T07:42:59.582Z,21.00
2022-08-08T07:45:34.313Z,21.10
2022-08-08T07:48:03.029Z,21.10
2022-08-08T07:50:38.096Z,21.10
2022-08-08T07:53:23.878Z,21.00
2022-08-08T07:56:07.757Z,21.00
2022-08-08T07:58:43.756Z,21.00
2022-08-08T08:01:20.361Z,21.00
2022-08-08T08:04:13.698Z,20.90
2022-08-08T08:06:43.224Z,20.90
2022-08-08T08:09:19.088Z,20.80
2022-08-08T08:11:52.825Z,21.00
2022-08-08T08:15:04.223Z,20.90
2022-08-08T08:17:47.938Z,21.00
2022-08-08T08:20:18.629Z,21.00
2022-08-08T08:22:47.446Z,21.00
2022-08-08T08:25:19.138Z,21.10
2022-08-08T08:27:46.986Z,21.40
2022-08-08T08:30:14.581Z,21.60
2022-08-08T08:32:51.343Z,21.70
2022-08-08T08:35:21.626Z,21.80
2022-08-08T08:38:15.840Z,21.80
2022-08-08T08:40:43.472Z,21.90
2022-08-08T08:43:20.000Z,21.80
2022-08-08T08:45:57.833Z,21.80
2022-08-08T08:48:25.637Z,21.80
2022-08-08T08:50:54.707Z,22.00
2022-08-08T08:53:53.964Z,22.30
2022-08-08T08:56:14.137Z,22.60
2022-08-08T08:58:50.303Z,22.70
2022-08-08T09:01:28.006Z,22.80
2022-08-08T09:04:05.469Z,22.80
2022-08-08T09:06:49.936Z,22.70
2022-08-08T09:09:35.196Z,22.50
2022-08-08T09:12:09.703Z,22.30
2022-08-08T09:14:42.311Z,22.30
2022-08-08T09:17:15.820Z,22.30
2022-08-08T09:22:02.791Z,22.40
2022-08-08T09:22:34.513Z,22.30
2022-08-08T09:25:02.902Z,22.30
2022-08-08T09:27:42.083Z,22.30
2022-08-08T09:30:20.104Z,22.40
2022-08-08T09:33:13.208Z,22.50
2022-08-08T09:35:48.840Z,22.30
2022-08-08T09:38:53.173Z,22.40
2022-08-08T09:42:14.983Z,22.30
2022-08-08T09:44:53.285Z,22.20
2022-08-08T09:48:02.083Z,22.10
2022-08-08T09:50:21.273Z,22.20
2022-08-08T09:52:57.449Z,22.20
2022-08-08T09:56:03.690Z,22.30
2022-08-08T09:58:26.180Z,22.40
2022-08-08T10:01:14.257Z,22.50
2022-08-08T10:03:46.151Z,22.60
2022-08-08T10:06:29.355Z,22.70
2022-08-08T10:08:57.310Z,22.70
2022-08-08T10:12:25.992Z,22.90
2022-08-08T10:14:28.113Z,23.20
2022-08-08T10:16:59.140Z,23.20
2022-08-08T10:19:45.757Z,23.00
2022-08-08T10:22:25.950Z,23.00
2022-08-08T10:25:07.345Z,23.00
2022-08-08T10:27:44.962Z,23.30
2022-08-08T10:30:16.488Z,23.30
2022-08-08T10:33:00.780Z,23.20
2022-08-08T10:36:08.342Z,23.10
2022-08-08T10:38:19.651Z,23.10
2022-08-08T10:40:52.123Z,23.00
2022-08-08T10:43:20.352Z,23.00
2022-08-08T10:45:56.054Z,22.90
2022-08-08T10:48:31.350Z,22.80
2022-08-08T10:51:10.914Z,22.90
2022-08-08T10:53:39.196Z,22.90
2022-08-08T10:56:27.920Z,22.80
2022-08-08T10:59:10.422Z,22.80
2022-08-08T11:01:49.274Z,22.70
2022-08-08T11:04:29.641Z,22.80
2022-08-08T11:07:05.868Z,22.90
2022-08-08T11:09:34.430Z,22.80
2022-08-08T11:12:12.394Z,22.80
2022-08-08T11:14:51.511Z,22.70
2022-08-08T11:17:58.090Z,22.90
2022-08-08T11:20:13.466Z,23.10
2022-08-08T11:22:41.202Z,23.40
2022-08-08T11:25:14.195Z,23.40
2022-08-08T11:27:44.485Z,23.60
2022-08-08T11:30:24.543Z,23.80
2022-08-08T11:33:04.970Z,24.00
2022-08-08T11:35:38.441Z,24.30
2022-08-08T11:38:38.561Z,24.40
2022-08-08T11:40:57.031Z,24.60
2022-08-08T11:43:39.318Z,24.80
2022-08-08T11:46:14.211Z,24.90
2022-08-08T11:48:47.036Z,24.90
2022-08-08T11:51:30.563Z,25.10
2022-08-08T11:54:27.035Z,24.90
2022-08-08T11:56:57.900Z,24.70
2022-08-08T11:59:58.655Z,24.70
2022-08-08T12:02:33.685Z,24.50
2022-08-08T12:05:08.324Z,24.30
2022-08-08T12:07:56.825Z,24.20
2022-08-08T12:10:26.144Z,24.20
2022-08-08T12:13:05.737Z,24.30
2022-08-08T12:15:46.827Z,24.60
2022-08-08T12:18:15.122Z,24.80
2022-08-08T12:20:44.949Z,24.90
2022-08-08T12:23:30.480Z,24.80
2022-08-08T12:26:17.396Z,24.80
2022-08-08T12:29:01.785Z,24.70
2022-08-08T12:31:39.233Z,24.80
2022-08-08T12:34:19.995Z,25.00
2022-08-08T12:36:49.117Z,25.10
2022-08-08T12:40:00.943Z,25.30
2022-08-08T12:42:20.997Z,25.40
2022-08-08T12:44:50.453Z,25.40
2022-08-08T12:47:58.020Z,25.50
2022-08-08T12:50:15.043Z,25.60
2022-08-08T12:52:52.473Z,25.00
2022-08-08T12:55:29.338Z,24.40
2022-08-08T12:58:15.717Z,24.30
2022-08-08T13:00:46.437Z,24.40
2022-08-08T13:03:33.396Z,24.60
2022-08-08T13:06:14.376Z,24.70
2022-08-08T13:08:53.623Z,24.80
2022-08-08T13:12:18.093Z,24.70
2022-08-08T13:14:21.521Z,24.70
2022-08-08T13:16:51.584Z,24.60
2022-08-08T13:19:24.158Z,24.70
2022-08-08T13:21:58.128Z,24.50
2022-08-08T13:24:40.890Z,24.40
2022-08-08T13:27:40.952Z,24.20
2022-08-08T13:30:08.557Z,24.20
2022-08-08T13:32:39.543Z,24.20
2022-08-08T13:35:11.646Z,24.20
2022-08-08T13:38:06.492Z,24.30
2022-08-08T13:40:35.606Z,24.30
2022-08-08T13:43:03.861Z,24.10
2022-08-08T13:45:31.506Z,24.20
2022-08-08T13:48:03.804Z,24.30
2022-08-08T13:50:49.082Z,24.10
2022-08-08T13:53:28.024Z,24.00
2022-08-08T13:56:05.781Z,24.10
2022-08-08T13:58:33.235Z,24.10
2022-08-08T14:01:18.189Z,24.10
2022-08-08T14:03:58.473Z,24.20
2022-08-08T14:06:34.071Z,24.10
2022-08-08T14:09:24.655Z,24.00
2022-08-08T14:11:49.988Z,24.10
2022-08-08T14:14:20.865Z,24.20
2022-08-08T14:16:52.563Z,24.10
2022-08-08T14:19:57.973Z,23.90
2022-08-08T14:22:23.625Z,23.90
2022-08-08T14:24:59.770Z,23.90
2022-08-08T14:27:29.711Z,23.80
2022-08-08T14:30:02.815Z,23.90
2022-08-08T14:32:30.860Z,23.90
2022-08-08T14:35:08.571Z,23.80
2022-08-08T14:37:43.116Z,23.80
2022-08-08T14:40:29.657Z,23.80
2022-08-08T14:42:59.631Z,23.80
2022-08-08T14:45:47.171Z,23.60
2022-08-08T14:48:27.633Z,23.70
2022-08-08T14:51:06.526Z,23.70
2022-08-08T14:53:54.417Z,23.80
2022-08-08T14:56:25.020Z,23.70
2022-08-08T14:58:54.359Z,23.70
2022-08-08T15:01:37.316Z,23.70
2022-08-08T15:04:09.529Z,23.50
2022-08-08T15:06:37.186Z,23.50
2022-08-08T15:09:04.511Z,23.40
2022-08-08T15:11:36.473Z,23.40
2022-08-08T15:14:13.696Z,23.30
2022-08-08T15:16:42.593Z,23.30
2022-08-08T15:19:11.334Z,23.20
2022-08-08T15:21:42.984Z,23.20
2022-08-08T15:24:13.904Z,23.20
2022-08-08T15:26:41.922Z,23.30
2022-08-08T15:29:08.881Z,23.20
2022-08-08T15:32:03.180Z,23.30
2022-08-08T15:34:29.619Z,23.10
2022-08-08T15:37:03.302Z,23.00
2022-08-08T15:39:37.623Z,23.00
2022-08-08T15:42:10.227Z,23.00
2022-08-08T15:44:38.516Z,23.10
2022-08-08T15:47:07.314Z,23.00
2022-08-08T15:49:44.385Z,23.20
2022-08-08T15:52:15.252Z,23.30
2022-08-08T15:54:47.661Z,23.30
2022-08-08T15:57:15.471Z,23.20
2022-08-08T16:00:25.266Z,23.10
2022-08-08T16:02:31.874Z,23.20
2022-08-08T16:05:02.528Z,23.20
2022-08-08T16:07:51.152Z,23.20
2022-08-08T16:13:11.640Z,23.40
2022-08-08T16:13:34.313Z,23.20
2022-08-08T16:15:59.757Z,23.20
2022-08-08T16:18:36.699Z,23.10
2022-08-08T16:21:14.779Z,23.10
2022-08-08T16:23:50.583Z,23.00
2022-08-08T16:26:34.254Z,23.00
2022-08-08T16:29:15.399Z,23.00
2022-08-08T16:31:49.194Z,23.00
2022-08-08T16:34:19.876Z,23.00
2022-08-08T16:36:50.500Z,23.00
2022-08-08T16:39:27.847Z,23.00
2022-08-08T16:42:06.235Z,22.70
2022-08-08T16:44:33.635Z,22.50
2022-08-08T16:47:41.739Z,22.60
2022-08-08T16:50:15.606Z,22.50
2022-08-08T16:55:03.767Z,22.50
2022-08-08T16:55:53.940Z,22.50
2022-08-08T16:58:25.513Z,22.30
2022-08-08T17:00:54.502Z,22.30
2022-08-08T17:03:24.870Z,22.30
2022-08-08T17:06:02.122Z,22.20
2022-08-08T17:08:28.971Z,22.20
2022-08-08T17:10:58.847Z,22.20
2022-08-08T17:13:41.467Z,22.10
2022-08-08T17:16:17.785Z,22.00
2022-08-08T17:18:49.331Z,22.00
2022-08-08T17:21:18.655Z,22.00
2022-08-08T17:24:00.041Z,21.90
2022-08-08T17:26:29.650Z,22.00
2022-08-08T17:28:58.576Z,21.80
2022-08-08T17:31:45.515Z,21.70
2022-08-08T17:34:36.255Z,21.70
2022-08-08T17:37:09.110Z,21.70
2022-08-08T17:40:03.914Z,21.60
2022-08-08T17:42:24.039Z,21.50
2022-08-08T17:44:52.604Z,21.40
2022-08-08T17:47:24.080Z,21.40
2022-08-08T17:50:01.409Z,21.40
2022-08-08T17:52:31.233Z,21.30
2022-08-08T17:55:01.249Z,21.30
2022-08-08T17:57:34.988Z,21.20
2022-08-08T18:00:03.004Z,21.30
2022-08-08T18:02:30.295Z,21.20
2022-08-08T18:04:58.809Z,21.20
2022-08-08T18:08:02.813Z,21.10
2022-08-08T18:10:15.428Z,21.10
2022-08-08T18:12:45.968Z,21.10
2022-08-08T18:15:13.547Z,21.10
2022-08-08T18:18:09.465Z,21.00
2022-08-08T18:20:37.249Z,21.00
2022-08-08T18:23:15.425Z,21.00
2022-08-08T18:25:43.528Z,21.00
2022-08-08T18:28:13.064Z,20.90
2022-08-08T18:30:40.706Z,20.90
2022-08-08T18:33:10.752Z,20.90
2022-08-08T18:36:03.041Z,20.80
2022-08-08T18:38:32.368Z,20.90
2022-08-08T18:41:01.223Z,20.80
2022-08-08T18:43:38.163Z,20.80
2022-08-08T18:46:55.637Z,20.70
2022-08-08T18:48:57.918Z,20.70
2022-08-08T18:51:52.768Z,20.70
2022-08-08T18:54:24.917Z,20.70
2022-08-08T18:56:57.717Z,20.70
2022-08-08T18:59:24.618Z,20.70
2022-08-08T19:02:28.921Z,20.70
2022-08-08T19:04:50.602Z,20.70
2022-08-08T19:07:18.311Z,20.60
2022-08-08T19:09:49.285Z,20.70
2022-08-08T19:12:32.455Z,20.70
2022-08-08T19:15:02.154Z,20.70
2022-08-08T19:17:47.870Z,20.50
2022-08-08T19:20:16.335Z,20.40
2022-08-08T19:22:44.585Z,20.40
2022-08-08T19:26:02.422Z,20.30
2022-08-08T19:28:00.001Z,20.30
2022-08-08T19:30:28.110Z,20.30
2022-08-08T19:32:58.164Z,20.40
2022-08-08T19:35:44.969Z,20.30
2022-08-08T19:38:17.272Z,20.30
2022-08-08T19:40:55.616Z,20.40
2022-08-08T19:43:28.648Z,20.40
2022-08-08T19:46:01.030Z,20.40
2022-08-08T19:48:30.949Z,20.30
2022-08-08T19:51:01.204Z,20.30
2022-08-08T19:53:54.043Z,20.20
2022-08-08T19:56:16.549Z,20.20
2022-08-08T19:59:02.869Z,20.30
2022-08-08T20:01:50.191Z,20.30
2022-08-08T20:04:16.619Z,20.30
2022-08-08T20:06:44.087Z,20.30
2022-08-08T20:09:15.920Z,20.30
2022-08-08T20:11:44.137Z,20.20
2022-08-08T20:14:31.885Z,20.20
2022-08-08T20:16:59.541Z,20.20
2022-08-08T20:19:34.496Z,20.20
2022-08-08T20:22:20.726Z,20.10
2022-08-08T20:24:53.602Z,20.00
2022-08-08T20:27:21.229Z,20.10
2022-08-08T20:30:00.594Z,20.10
2022-08-08T20:32:30.045Z,20.20
2022-08-08T20:35:02.177Z,20.10
2022-08-08T20:37:37.029Z,20.20
2022-08-08T20:40:16.604Z,20.20
2022-08-08T20:42:54.747Z,20.20
2022-08-08T20:45:54.382Z,20.10
2022-08-08T20:48:09.762Z,20.10
2022-08-08T20:50:36.902Z,20.10
2022-08-08T20:53:10.902Z,20.20
2022-08-08T20:55:50.978Z,20.10
2022-08-08T20:58:23.102Z,20.10
2022-08-08T21:00:50.472Z,20.00
2022-08-08T21:03:17.432Z,20.00
2022-08-08T21:05:49.162Z,19.90
2022-08-08T21:08:35.218Z,19.90
2022-08-08T21:11:03.231Z,19.90
2022-08-08T21:13:40.706Z,19.80
2022-08-08T21:16:18.134Z,19.80
2022-08-08T21:18:57.507Z,19.90
2022-08-08T21:21:39.331Z,19.90
2022-08-08T21:24:22.251Z,19.90
2022-08-08T21:26:54.395Z,19.90
2022-08-08T21:30:02.715Z,19.80
2022-08-08T21:32:14.204Z,19.70
2022-08-08T21:34:51.962Z,19.90
2022-08-08T21:37:53.469Z,19.90
2022-08-08T21:40:11.633Z,19.80
2022-08-08T21:42:39.874Z,19.80
2022-08-08T21:45:44.075Z,19.80
2022-08-08T21:48:07.953Z,19.70
2022-08-08T21:50:43.197Z,19.80
2022-08-08T21:54:22.740Z,19.80
2022-08-08T21:56:19.216Z,19.90
2022-08-08T21:58:45.935Z,20.00
2022-08-08T22:01:39.418Z,20.00
2022-08-08T22:04:12.277Z,20.00
2022-08-08T22:06:40.664Z,20.00
2022-08-08T22:09:09.654Z,20.00
2022-08-08T22:12:02.855Z,20.00
2022-08-08T22:14:26.707Z,19.90
2022-08-08T22:16:54.329Z,19.90
2022-08-08T22:19:24.077Z,19.90
2022-08-08T22:21:53.077Z,19.80
2022-08-08T22:24:28.401Z,19.80
2022-08-08T22:27:01.364Z,19.80
2022-08-08T22:30:01.525Z,19.80
2022-08-08T22:32:18.106Z,19.90
2022-08-08T22:34:50.446Z,19.90
2022-08-08T22:37:27.913Z,20.00
2022-08-08T22:40:16.624Z,20.00
2022-08-08T22:42:47.217Z,19.90
2022-08-08T22:45:15.644Z,19.90
2022-08-08T22:47:48.770Z,19.90
2022-08-08T22:50:26.859Z,19.90
2022-08-08T22:54:15.638Z,19.90
2022-08-08T22:55:59.111Z,19.90
2022-08-08T22:58:34.208Z,19.80
2022-08-08T23:01:26.571Z,19.80
2022-08-08T23:03:56.018Z,19.70
2022-08-08T23:06:24.977Z,19.70
2022-08-08T23:08:54.330Z,19.80
2022-08-08T23:11:23.402Z,19.70
2022-08-08T23:14:11.323Z,19.70
2022-08-08T23:16:43.880Z,19.70
2022-08-08T23:19:12.129Z,19.70
2022-08-08T23:21:39.189Z,19.60
2022-08-08T23:24:06.996Z,19.70
2022-08-08T23:26:34.357Z,19.70
2022-08-08T23:29:01.828Z,19.70
2022-08-08T23:31:28.946Z,19.70
2022-08-08T23:34:16.542Z,19.70
2022-08-08T23:36:42.521Z,19.70
2022-08-08T23:39:09.581Z,19.70
2022-08-08T23:41:45.832Z,19.70
2022-08-08T23:44:14.266Z,19.70
2022-08-08T23:49:01.100Z,19.70
2022-08-08T23:49:28.116Z,19.70
2022-08-08T23:52:04.430Z,19.70
2022-08-08T23:54:42.046Z,19.80
2022-08-08T23:57:27.478Z,19.70
